Pagrindinis puslapis
METAR-TAF:

METAR-TAF

Oro uostai :

Fernandina Beach, Florida, Jungtinės Amerikos Valstijos

platuma: 30-36-43N, ilguma: 081-27-40W, Aukštis: 5 m

Dabartinis oras

Ataskaita buvo paskelbta 15 minutes, ne 17:35 UTC
Vėjas 7 kt iš Šiaurės Vakarų, svyruoja nuo Vakarų ir Šiaurės/Šiaurės Vakarų
Temperatūra 21°C
Drėgmė 43%
Slėgis 1014 hPa
Matomumas: 16.1 km
Giedras dangus

METAR: KFHB 171735Z AUTO 31007KT 280V340 10SM CLR 21/08 A2993 RMK AO2 T02110080

Laikas: 13:50 (17:50 UTC)


TAF: trūkstamas

Orai ataskaitas ir orų prognozės (METAR, TAF).

turimą stotys yra geltonos ir raudonos taškus žemėlapyje.

Perkelti pele per norėdami pamatyti stoties vardą.

Tada spustelėkite, norėdami matyti oro stebėjimo ir prognozės.

Norėdami pakeisti žemėlapį: spustelėkite ant žalios mygtukų su juodo kryžiaus žemyn,; žalią mygtuką su brūkšneliu, jei norite nutolinti; arba žalių rodyklių gretimoms žemėlapius.


METAR-TAF: